Time;durP1;ratioP1;P1;durP2;ratioP2;P2;SDS_P1;SDS_P2;PMS_P1;PMS_P2;Temp;Humidity;BMP_temperature;BMP_pressure;BME280_temperature;BME280_humidity;BME280_pressure;Samples;Min_cycle;Max_cycle;Signal;HPM_P1;HPM_P2
2023/02/03 00:01:00;;;;;;;9.52;2.38;;;10.60;99.90;;;;;;5071004;28;20202;-79
2023/02/03 00:03:26;;;;;;;14.85;2.50;;;10.70;99.90;;;;;;5072280;28;20166;-78
2023/02/03 00:05:52;;;;;;;9.05;2.65;;;10.70;99.90;;;;;;5072181;28;20650;-79
2023/02/03 00:08:19;;;;;;;10.18;2.58;;;10.80;99.90;;;;;;5072080;28;20163;-79
2023/02/03 00:10:45;;;;;;;15.15;2.78;;;10.70;99.90;;;;;;5071689;28;20205;-78
2023/02/03 00:13:11;;;;;;;6.65;2.70;;;10.80;99.90;;;;;;5071996;28;20174;-78
2023/02/03 00:15:36;;;;;;;5.82;2.38;;;10.80;99.90;;;;;;5071939;28;20179;-79
2023/02/03 00:18:02;;;;;;;9.68;2.38;;;10.90;99.90;;;;;;5072218;28;20167;-78
2023/02/03 00:20:28;;;;;;;14.30;2.13;;;10.80;99.90;;;;;;5071876;28;20186;-78
2023/02/03 00:22:53;;;;;;;9.70;2.35;;;10.80;99.90;;;;;;5072023;28;20216;-77
2023/02/03 00:25:20;;;;;;;16.65;2.25;;;10.80;99.90;;;;;;5071771;28;20196;-78
2023/02/03 00:27:46;;;;;;;8.43;1.83;;;10.70;99.90;;;;;;5072032;28;20210;-80
2023/02/03 00:30:12;;;;;;;7.00;2.15;;;10.70;99.90;;;;;;5071575;28;20245;-78
2023/02/03 00:32:37;;;;;;;11.05;2.55;;;10.70;99.90;;;;;;5071792;28;20163;-78
2023/02/03 00:35:04;;;;;;;15.30;2.47;;;10.80;99.90;;;;;;5072092;28;20239;-79
2023/02/03 00:37:29;;;;;;;6.50;2.58;;;10.80;99.90;;;;;;5070461;28;20178;-79
2023/02/03 00:39:55;;;;;;;12.68;2.30;;;10.90;99.90;;;;;;5071874;28;20160;-78
2023/02/03 00:42:21;;;;;;;6.47;1.98;;;10.90;99.90;;;;;;5071323;28;20536;-78
2023/02/03 00:44:46;;;;;;;7.57;2.00;;;11.00;99.90;;;;;;5075339;28;20166;-79
2023/02/03 00:47:12;;;;;;;15.48;2.60;;;11.00;99.90;;;;;;5075205;28;20185;-80
2023/02/03 00:49:37;;;;;;;10.25;1.98;;;11.00;99.90;;;;;;5075828;28;20241;-84
2023/02/03 00:52:03;;;;;;;6.93;2.22;;;10.90;99.90;;;;;;5074419;28;20256;-80
2023/02/03 00:54:29;;;;;;;6.55;1.90;;;11.00;99.90;;;;;;5075249;28;20177;-82
2023/02/03 00:56:55;;;;;;;7.05;2.13;;;10.80;99.90;;;;;;5075661;28;20162;-80
2023/02/03 00:59:20;;;;;;;6.18;2.03;;;10.70;99.90;;;;;;5075859;28;20250;-83
2023/02/03 01:01:48;;;;;;;2.83;1.27;;;10.70;99.90;;;;;;5075426;28;20537;-84
2023/02/03 01:04:14;;;;;;;12.90;1.58;;;10.60;99.90;;;;;;5075525;28;20182;-83
2023/02/03 01:06:40;;;;;;;9.18;1.63;;;10.60;99.90;;;;;;5075608;28;20167;-83
2023/02/03 01:09:05;;;;;;;9.63;2.55;;;10.70;99.90;;;;;;5074547;28;20190;-84
2023/02/03 01:11:32;;;;;;;12.20;1.83;;;10.80;99.90;;;;;;5075536;28;20265;-82
2023/02/03 01:14:00;;;;;;;15.93;1.80;;;10.80;99.90;;;;;;5074105;28;20167;-84
2023/02/03 01:16:27;;;;;;;5.65;2.00;;;10.80;99.90;;;;;;5075742;28;20631;-84
2023/02/03 01:18:54;;;;;;;7.07;1.58;;;10.80;99.90;;;;;;5075538;28;20171;-82
2023/02/03 01:21:23;;;;;;;4.05;1.50;;;10.90;99.90;;;;;;5074853;28;20380;-78
2023/02/03 01:23:49;;;;;;;8.57;1.60;;;10.90;99.90;;;;;;5073514;28;20402;-78
2023/02/03 01:26:17;;;;;;;3.63;1.50;;;11.00;99.90;;;;;;5074699;28;20158;-78
2023/02/03 01:28:43;;;;;;;9.25;1.85;;;11.00;99.90;;;;;;5074664;28;20654;-78
2023/02/03 01:31:09;;;;;;;4.85;1.95;;;10.90;99.90;;;;;;5074402;28;20702;-79
2023/02/03 01:33:35;;;;;;;16.20;1.85;;;10.90;99.90;;;;;;5073052;28;20289;-79
2023/02/03 01:36:01;;;;;;;10.00;1.95;;;10.80;99.90;;;;;;5074271;28;20174;-78
2023/02/03 01:38:27;;;;;;;8.45;2.10;;;10.80;99.90;;;;;;5074404;28;20631;-78
2023/02/03 01:40:52;;;;;;;8.38;1.35;;;10.80;99.90;;;;;;5074391;28;20183;-79
2023/02/03 01:43:40;;;;;;;12.65;2.17;;;10.80;99.90;;;;;;5074685;28;20503;-78
2023/02/03 01:46:34;;;;;;;9.23;1.77;;;10.80;99.90;;;;;;5073055;28;20171;-82
2023/02/03 01:49:37;;;;;;;12.93;2.35;;;10.70;99.90;;;;;;5072501;28;20659;-78
2023/02/03 01:52:03;;;;;;;12.98;2.00;;;10.80;99.90;;;;;;5071979;28;20205;-78
2023/02/03 01:54:32;;;;;;;9.93;1.40;;;10.70;99.90;;;;;;5074379;28;20686;-84
2023/02/03 01:57:05;;;;;;;13.02;1.80;;;10.70;99.90;;;;;;5072446;28;20221;-78
2023/02/03 01:59:33;;;;;;;14.77;1.73;;;10.70;99.90;;;;;;5074962;28;20186;-78
2023/02/03 02:02:00;;;;;;;11.70;1.52;;;10.70;99.90;;;;;;5077559;28;20213;-79
2023/02/03 02:04:34;;;;;;;7.15;1.85;;;10.80;99.90;;;;;;5078783;28;20898;-80
2023/02/03 02:07:02;;;;;;;8.27;1.92;;;10.80;99.90;;;;;;5076594;28;20177;-79
2023/02/03 02:09:28;;;;;;;24.40;2.13;;;10.70;99.90;;;;;;5077456;28;20203;-79
2023/02/03 02:11:53;;;;;;;11.48;1.60;;;10.80;99.90;;;;;;5076826;28;20201;-81
2023/02/03 02:14:19;;;;;;;6.95;1.67;;;10.80;99.90;;;;;;5079044;28;20173;-82
2023/02/03 02:16:47;;;;;;;8.50;1.88;;;10.70;99.90;;;;;;5077684;28;20224;-80
2023/02/03 02:19:28;;;;;;;11.45;1.85;;;10.70;99.90;;;;;;5076584;28;20293;-80
2023/02/03 02:22:13;;;;;;;5.55;1.50;;;10.80;99.90;;;;;;5076313;28;20196;-79
2023/02/03 02:24:48;;;;;;;12.93;2.42;;;10.90;99.90;;;;;;5077464;28;20172;-80
2023/02/03 02:27:44;;;;;;;6.78;1.20;;;10.80;99.90;;;;;;5072918;28;20548;-79
2023/02/03 02:30:19;;;;;;;12.23;1.00;;;10.90;99.90;;;;;;5076343;28;20276;-80
2023/02/03 02:32:56;;;;;;;7.20;2.38;;;10.90;99.90;;;;;;5074879;28;20642;-80
2023/02/03 02:35:27;;;;;;;13.07;2.10;;;10.90;99.90;;;;;;5072554;28;20269;-79
2023/02/03 02:38:01;;;;;;;13.02;1.77;;;10.90;99.90;;;;;;5072967;28;20168;-79
2023/02/03 02:40:51;;;;;;;10.02;1.58;;;10.80;99.90;;;;;;5073052;28;20685;-79
2023/02/03 02:43:29;;;;;;;5.63;1.80;;;10.80;99.90;;;;;;5074674;28;20215;-79
2023/02/03 02:46:13;;;;;;;7.30;1.27;;;10.70;99.90;;;;;;5074369;28;20212;-81
2023/02/03 02:48:56;;;;;;;15.90;1.83;;;10.60;99.90;;;;;;5074808;28;20198;-85
2023/02/03 02:51:23;;;;;;;7.88;1.83;;;10.60;99.90;;;;;;5073819;28;20182;-79
2023/02/03 02:53:55;;;;;;;11.23;1.17;;;10.70;99.90;;;;;;5072353;28;20509;-85
2023/02/03 02:56:25;;;;;;;9.60;1.90;;;10.70;99.90;;;;;;5073588;28;20553;-79
2023/02/03 02:58:53;;;;;;;6.20;1.50;;;10.70;99.90;;;;;;5072723;28;20513;-80
2023/02/03 03:01:19;;;;;;;11.13;1.50;;;10.70;99.90;;;;;;5072478;28;20190;-79
2023/02/03 03:03:45;;;;;;;10.77;1.70;;;10.80;99.90;;;;;;5073927;28;20170;-84
2023/02/03 03:06:17;;;;;;;6.32;1.33;;;10.80;99.90;;;;;;5072492;28;20186;-79
2023/02/03 03:09:01;;;;;;;7.93;1.20;;;10.80;99.90;;;;;;5071956;28;20700;-80
2023/02/03 03:11:31;;;;;;;5.82;1.20;;;10.80;99.90;;;;;;5071834;28;20246;-79
2023/02/03 03:13:57;;;;;;;6.68;1.42;;;10.70;99.90;;;;;;5074437;28;20203;-79
2023/02/03 03:16:29;;;;;;;9.45;1.60;;;10.80;99.90;;;;;;5078084;28;20163;-78
2023/02/03 03:19:12;;;;;;;5.70;1.38;;;10.80;99.90;;;;;;5071850;28;20692;-80
2023/02/03 03:21:45;;;;;;;7.82;1.67;;;10.70;99.90;;;;;;5072450;28;20589;-79
2023/02/03 03:24:17;;;;;;;7.72;1.38;;;10.80;99.90;;;;;;5072952;28;20258;-79
2023/02/03 03:26:58;;;;;;;13.93;1.80;;;10.80;99.90;;;;;;5072626;28;20239;-79
2023/02/03 03:29:54;;;;;;;6.60;1.25;;;10.80;99.90;;;;;;5072599;28;20258;-79
2023/02/03 03:32:20;;;;;;;1.75;1.10;;;10.70;99.90;;;;;;5069414;28;20252;-78
2023/02/03 03:34:46;;;;;;;7.53;1.15;;;10.70;99.90;;;;;;5072836;28;20275;-79
2023/02/03 03:37:38;;;;;;;8.93;1.13;;;10.80;99.90;;;;;;5072579;28;20167;-79
2023/02/03 03:40:19;;;;;;;9.50;1.08;;;10.80;99.90;;;;;;5058378;28;20285;-80
2023/02/03 03:42:50;;;;;;;8.57;1.33;;;10.60;99.90;;;;;;5072764;28;20227;-79
2023/02/03 03:45:25;;;;;;;3.42;1.25;;;10.60;99.90;;;;;;5071318;28;20158;-84
2023/02/03 03:48:11;;;;;;;8.32;1.63;;;10.50;99.90;;;;;;5072015;28;20619;-80
2023/02/03 03:50:50;;;;;;;10.20;1.48;;;10.70;99.90;;;;;;5072143;28;20210;-79
2023/02/03 03:53:17;;;;;;;6.32;1.00;;;10.80;99.90;;;;;;5071318;28;20525;-82
2023/02/03 03:55:48;;;;;;;2.72;0.80;;;10.80;99.90;;;;;;5072308;28;20163;-79
2023/02/03 03:58:20;;;;;;;7.22;1.00;;;10.80;99.90;;;;;;5072212;28;20247;-79
2023/02/03 04:00:47;;;;;;;4.43;1.05;;;10.70;99.90;;;;;;5070693;28;20178;-79
2023/02/03 04:03:25;;;;;;;5.38;1.10;;;10.70;99.90;;;;;;5072300;28;20167;-79
2023/02/03 04:05:50;;;;;;;10.50;1.55;;;10.70;99.90;;;;;;5071838;28;20253;-80
2023/02/03 04:08:16;;;;;;;8.93;1.00;;;10.70;99.90;;;;;;5072160;28;20250;-79
2023/02/03 04:10:43;;;;;;;10.95;1.35;;;10.80;99.90;;;;;;5071888;28;20205;-80
2023/02/03 04:13:10;;;;;;;2.47;1.27;;;10.80;99.90;;;;;;5072107;28;20619;-79
2023/02/03 04:15:36;;;;;;;7.97;1.05;;;10.90;99.90;;;;;;5070646;28;20174;-79
2023/02/03 04:18:02;;;;;;;4.47;1.00;;;10.80;99.90;;;;;;5074069;28;20173;-79
2023/02/03 04:20:29;;;;;;;9.25;1.33;;;10.90;99.90;;;;;;5075582;28;20190;-85
2023/02/03 04:22:55;;;;;;;7.88;1.30;;;10.90;99.90;;;;;;5075614;28;20601;-79
2023/02/03 04:25:21;;;;;;;4.13;1.77;;;10.90;99.90;;;;;;5075918;28;20245;-79
2023/02/03 04:27:46;;;;;;;4.88;0.90;;;10.80;99.90;;;;;;5075705;28;20185;-81
2023/02/03 04:30:12;;;;;;;5.25;1.70;;;10.70;99.90;;;;;;5074171;28;20213;-85
2023/02/03 04:32:38;;;;;;;2.75;0.93;;;10.80;99.90;;;;;;5076380;28;20184;-79
2023/02/03 04:35:05;;;;;;;8.10;1.35;;;10.70;99.90;;;;;;5075622;28;20607;-79
2023/02/03 04:37:31;;;;;;;7.00;1.27;;;10.80;99.90;;;;;;5075569;28;20163;-84
2023/02/03 04:39:57;;;;;;;8.07;1.13;;;10.70;99.90;;;;;;5075497;28;20683;-82
2023/02/03 04:42:23;;;;;;;2.65;0.90;;;10.70;99.90;;;;;;5075373;28;20163;-79
2023/02/03 04:44:49;;;;;;;2.53;0.90;;;10.60;99.90;;;;;;5075354;28;20245;-79
2023/02/03 04:47:15;;;;;;;3.15;0.95;;;10.70;99.90;;;;;;5075282;28;20254;-79
2023/02/03 04:49:41;;;;;;;2.55;1.00;;;10.80;99.90;;;;;;5074901;28;20202;-79
2023/02/03 04:52:07;;;;;;;7.78;1.42;;;10.80;99.90;;;;;;5073501;28;20651;-80
2023/02/03 04:54:33;;;;;;;2.42;0.70;;;10.90;99.90;;;;;;5075230;28;20245;-80
2023/02/03 04:56:59;;;;;;;4.03;0.98;;;10.90;99.90;;;;;;5074024;28;20261;-80
2023/02/03 04:59:25;;;;;;;5.80;1.38;;;10.80;99.90;;;;;;5075610;28;20673;-80
2023/02/03 05:01:50;;;;;;;1.05;0.63;;;10.80;99.90;;;;;;5073782;28;20195;-79
2023/02/03 05:04:16;;;;;;;6.97;1.13;;;10.80;99.90;;;;;;5075765;28;20170;-79
2023/02/03 05:06:42;;;;;;;4.45;1.20;;;10.80;99.90;;;;;;5078731;28;20216;-80
2023/02/03 05:09:07;;;;;;;1.98;0.90;;;10.80;99.90;;;;;;5077576;28;20245;-84
2023/02/03 05:11:33;;;;;;;5.45;1.40;;;10.80;99.90;;;;;;5074243;28;20187;-80
2023/02/03 05:13:59;;;;;;;5.85;1.20;;;10.80;99.90;;;;;;5078094;28;20668;-85
2023/02/03 05:16:24;;;;;;;3.65;1.40;;;10.70;99.90;;;;;;5075919;28;20185;-80
2023/02/03 05:18:50;;;;;;;4.13;1.40;;;10.60;99.90;;;;;;5075457;28;20171;-80
2023/02/03 05:21:16;;;;;;;5.68;0.85;;;10.60;99.90;;;;;;5074929;28;20193;-80
2023/02/03 05:23:41;;;;;;;7.82;1.60;;;10.60;99.90;;;;;;5074367;28;20171;-80
2023/02/03 05:26:07;;;;;;;2.85;0.85;;;10.60;99.90;;;;;;5074576;28;20178;-79
2023/02/03 05:28:33;;;;;;;3.35;1.10;;;10.70;99.90;;;;;;5073932;28;20166;-81
2023/02/03 05:31:00;;;;;;;6.50;0.93;;;10.70;99.90;;;;;;5072971;28;20674;-86
2023/02/03 05:33:26;;;;;;;2.20;0.82;;;10.70;99.90;;;;;;5074488;28;20162;-79
2023/02/03 05:35:52;;;;;;;5.63;1.05;;;10.70;99.90;;;;;;5073263;28;20231;-80
2023/02/03 05:38:18;;;;;;;2.72;0.90;;;10.70;99.90;;;;;;5074655;28;20178;-81
2023/02/03 05:43:30;;;;;;;4.10;1.10;;;10.60;99.90;;;;;;5074392;28;20662;-80
2023/02/03 05:45:59;;;;;;;2.05;0.98;;;10.60;99.90;;;;;;5074072;28;20174;-80
2023/02/03 05:48:25;;;;;;;2.45;0.75;;;10.60;99.90;;;;;;5074218;28;20506;-80
2023/02/03 05:50:50;;;;;;;2.58;1.00;;;10.70;99.90;;;;;;5074145;28;20190;-80
2023/02/03 05:53:16;;;;;;;1.50;0.63;;;10.70;99.90;;;;;;5074529;28;20530;-85
2023/02/03 05:55:42;;;;;;;3.67;1.00;;;10.80;99.90;;;;;;5072726;28;20186;-80
2023/02/03 05:58:07;;;;;;;8.13;0.98;;;10.80;99.90;;;;;;5072921;28;20704;-80
2023/02/03 06:00:33;;;;;;;8.43;1.20;;;10.90;99.90;;;;;;5073864;28;20527;-80
2023/02/03 06:03:01;;;;;;;2.22;1.00;;;10.80;99.90;;;;;;5072599;28;20170;-79
2023/02/03 06:05:27;;;;;;;2.45;0.70;;;10.70;99.90;;;;;;5073490;28;20618;-80
2023/02/03 06:07:53;;;;;;;14.80;1.20;;;10.70;99.90;;;;;;5072312;28;20232;-79
2023/02/03 06:10:20;;;;;;;6.60;0.82;;;10.80;99.90;;;;;;5073544;28;20702;-79
2023/02/03 06:12:45;;;;;;;1.83;0.77;;;10.70;99.90;;;;;;5073592;28;20173;-79
2023/02/03 06:15:11;;;;;;;3.40;0.88;;;10.70;99.90;;;;;;5072012;28;20253;-79
2023/02/03 06:17:37;;;;;;;6.25;1.00;;;10.60;99.90;;;;;;5073233;28;20242;-80
2023/02/03 06:20:05;;;;;;;6.18;0.95;;;10.60;99.90;;;;;;5073115;28;20631;-79
2023/02/03 06:22:30;;;;;;;7.43;1.27;;;10.60;99.90;;;;;;5073686;28;20162;-82
2023/02/03 06:24:56;;;;;;;1.10;0.88;;;10.70;99.90;;;;;;5073538;28;20576;-81
2023/02/03 06:27:22;;;;;;;5.55;1.20;;;10.60;99.90;;;;;;5072011;28;20182;-87
2023/02/03 06:29:47;;;;;;;2.70;0.85;;;10.60;99.90;;;;;;5073285;28;20237;-80
2023/02/03 06:32:13;;;;;;;2.22;0.63;;;10.60;99.90;;;;;;5072823;28;20186;-80
2023/02/03 06:34:39;;;;;;;3.58;0.95;;;10.70;99.90;;;;;;5071498;28;20274;-81
2023/02/03 06:37:04;;;;;;;5.78;1.02;;;10.70;99.90;;;;;;5072681;28;20579;-86
2023/02/03 06:39:30;;;;;;;2.50;0.90;;;10.70;99.90;;;;;;5071988;28;20162;-81
2023/02/03 06:41:55;;;;;;;5.35;1.25;;;10.90;99.90;;;;;;5072498;28;20565;-84
2023/02/03 06:44:21;;;;;;;3.65;1.05;;;11.00;99.90;;;;;;5071323;28;20174;-80
2023/02/03 06:46:47;;;;;;;4.75;1.17;;;10.80;99.90;;;;;;5072837;28;20159;-80
2023/02/03 06:49:13;;;;;;;7.50;1.20;;;10.80;99.90;;;;;;5072506;28;20685;-81
2023/02/03 06:51:39;;;;;;;6.03;1.17;;;10.80;99.90;;;;;;5072428;28;20186;-81
2023/02/03 06:54:04;;;;;;;7.68;0.80;;;10.80;99.90;;;;;;5071557;28;20170;-81
2023/02/03 06:56:30;;;;;;;1.23;0.80;;;10.80;99.90;;;;;;5071517;28;20201;-83
2023/02/03 06:58:56;;;;;;;6.57;1.15;;;10.90;99.90;;;;;;5072765;28;20169;-81
2023/02/03 07:01:22;;;;;;;3.95;0.75;;;10.90;99.90;;;;;;5072389;28;20189;-81
2023/02/03 07:03:48;;;;;;;18.95;1.40;;;10.90;99.90;;;;;;5071100;28;20178;-81
2023/02/03 07:06:14;;;;;;;4.03;0.90;;;10.80;99.90;;;;;;5072135;28;20174;-80
2023/02/03 07:08:40;;;;;;;5.35;1.10;;;10.80;99.90;;;;;;5070751;28;20627;-80
2023/02/03 07:11:06;;;;;;;3.72;1.15;;;10.70;99.90;;;;;;5076636;28;20183;-80
2023/02/03 07:13:32;;;;;;;5.97;1.05;;;10.70;99.90;;;;;;5072747;28;20166;-80
2023/02/03 07:15:57;;;;;;;9.27;1.77;;;10.70;99.90;;;;;;5071846;28;20185;-81
2023/02/03 07:18:25;;;;;;;2.13;0.90;;;10.70;99.90;;;;;;5072423;28;20169;-79
2023/02/03 07:20:51;;;;;;;3.33;1.35;;;10.80;99.90;;;;;;5071579;28;20680;-81
2023/02/03 07:23:19;;;;;;;6.68;1.13;;;10.90;99.90;;;;;;5071298;28;20198;-79
2023/02/03 07:25:44;;;;;;;3.00;0.90;;;10.90;99.90;;;;;;5072716;28;20222;-82
2023/02/03 07:28:10;;;;;;;8.95;1.67;;;10.80;99.90;;;;;;5087450;28;20205;-85
2023/02/03 07:30:36;;;;;;;4.55;1.00;;;10.80;99.90;;;;;;5073264;28;20237;-82
2023/02/03 07:33:02;;;;;;;4.07;1.23;;;10.90;99.90;;;;;;5071036;28;20232;-79
2023/02/03 07:35:27;;;;;;;2.83;1.05;;;10.80;99.90;;;;;;5070937;28;20528;-80
2023/02/03 07:37:53;;;;;;;10.63;1.23;;;10.90;99.90;;;;;;5070990;28;20619;-79
2023/02/03 07:40:19;;;;;;;2.70;1.17;;;10.90;99.90;;;;;;5070556;28;20654;-79
2023/02/03 07:42:47;;;;;;;5.88;1.23;;;10.80;99.90;;;;;;5070278;28;20198;-80
2023/02/03 07:45:14;;;;;;;12.80;1.40;;;10.90;99.90;;;;;;5072821;28;20155;-80
2023/02/03 07:47:41;;;;;;;3.95;1.30;;;10.90;99.90;;;;;;5070848;28;20204;-83
2023/02/03 07:50:08;;;;;;;7.97;1.00;;;11.00;99.90;;;;;;5070047;28;20206;-85
2023/02/03 07:52:34;;;;;;;3.58;1.20;;;10.90;99.90;;;;;;5078082;28;20162;-83
2023/02/03 07:55:00;;;;;;;2.05;0.98;;;10.80;99.90;;;;;;5079249;28;20227;-84
2023/02/03 07:57:25;;;;;;;8.27;1.30;;;10.90;99.90;;;;;;5077447;28;20162;-78
2023/02/03 07:59:51;;;;;;;4.13;1.00;;;11.00;99.90;;;;;;5078742;28;20607;-78
2023/02/03 08:02:17;;;;;;;11.75;1.27;;;11.00;99.90;;;;;;5078795;28;20185;-78
2023/02/03 08:04:42;;;;;;;5.30;1.48;;;10.90;99.90;;;;;;5078923;28;20566;-79
2023/02/03 08:07:08;;;;;;;8.48;1.20;;;10.90;99.90;;;;;;5078458;28;20174;-78
2023/02/03 08:09:33;;;;;;;3.38;1.00;;;10.90;99.90;;;;;;5078634;28;20214;-79
2023/02/03 08:11:59;;;;;;;4.65;2.03;;;10.90;99.90;;;;;;5078534;28;20273;-78
2023/02/03 08:14:24;;;;;;;5.70;1.50;;;11.00;99.90;;;;;;5073678;28;20524;-85
2023/02/03 08:16:50;;;;;;;8.35;1.00;;;11.00;99.90;;;;;;5075344;28;20623;-79
2023/02/03 08:19:16;;;;;;;2.45;1.05;;;11.20;99.90;;;;;;5078649;28;20179;-85
2023/02/03 08:21:41;;;;;;;7.63;1.10;;;11.10;99.90;;;;;;5078754;28;20184;-79
2023/02/03 08:24:07;;;;;;;4.43;1.30;;;11.20;99.90;;;;;;5086427;28;20660;-82
2023/02/03 08:26:35;;;;;;;3.17;1.00;;;11.00;99.90;;;;;;5079180;28;20285;-85
2023/02/03 08:29:00;;;;;;;6.53;2.08;;;11.10;99.90;;;;;;5079474;28;20533;-85
2023/02/03 08:31:26;;;;;;;5.45;1.63;;;11.10;99.90;;;;;;5086717;28;20197;-86
2023/02/03 08:33:51;;;;;;;2.70;1.52;;;11.10;99.90;;;;;;5079055;28;20178;-85
2023/02/03 08:36:17;;;;;;;5.13;1.80;;;11.20;99.90;;;;;;5078409;28;20166;-78
2023/02/03 08:38:43;;;;;;;2.97;1.08;;;11.30;99.90;;;;;;5078316;28;20611;-78
2023/02/03 08:41:11;;;;;;;6.63;1.60;;;11.30;99.90;;;;;;5078586;28;20243;-82
2023/02/03 08:43:36;;;;;;;1.83;0.63;;;11.30;99.90;;;;;;5078533;28;20158;-78
2023/02/03 08:46:04;;;;;;;2.88;1.02;;;11.40;99.90;;;;;;5076863;28;20764;-78
2023/02/03 08:48:29;;;;;;;5.53;1.13;;;11.30;99.90;;;;;;5076419;28;20287;-78
2023/02/03 08:50:55;;;;;;;5.93;0.98;;;11.40;99.90;;;;;;5076216;28;20231;-78
2023/02/03 08:53:21;;;;;;;6.20;1.55;;;11.40;99.90;;;;;;5076383;28;20205;-78
2023/02/03 08:55:46;;;;;;;4.82;1.20;;;11.40;99.90;;;;;;5076723;28;20249;-79
2023/02/03 08:58:12;;;;;;;12.50;1.50;;;11.30;99.90;;;;;;5074692;28;20223;-78
2023/02/03 09:00:37;;;;;;;7.72;1.20;;;11.20;99.90;;;;;;5074688;28;20576;-78
2023/02/03 09:03:03;;;;;;;10.63;1.55;;;11.40;99.90;;;;;;5074853;28;20173;-78
2023/02/03 09:05:32;;;;;;;2.63;1.10;;;11.40;99.90;;;;;;5074807;28;20658;-78
2023/02/03 09:07:58;;;;;;;2.90;1.23;;;11.40;99.90;;;;;;5075087;28;20174;-78
2023/02/03 09:10:24;;;;;;;5.20;1.13;;;11.30;99.90;;;;;;5074905;28;20693;-79
2023/02/03 09:12:49;;;;;;;3.53;0.98;;;11.30;99.90;;;;;;5074708;28;20223;-80
2023/02/03 09:15:15;;;;;;;1.48;1.00;;;11.30;99.90;;;;;;5074819;28;20697;-78
2023/02/03 09:17:41;;;;;;;2.28;1.42;;;11.30;99.90;;;;;;5074791;28;20162;-78
2023/02/03 09:20:07;;;;;;;5.38;1.13;;;11.30;99.90;;;;;;5074877;28;20167;-78
2023/02/03 09:22:33;;;;;;;7.10;1.40;;;11.30;99.90;;;;;;5074779;28;20182;-78
2023/02/03 09:24:59;;;;;;;4.18;1.52;;;11.30;99.90;;;;;;5074586;28;20576;-78
2023/02/03 09:27:24;;;;;;;4.05;1.10;;;11.40;99.90;;;;;;5074148;28;20186;-78
2023/02/03 09:29:50;;;;;;;2.42;1.23;;;11.30;99.90;;;;;;5073267;28;20206;-78
2023/02/03 09:32:15;;;;;;;5.78;1.10;;;11.40;99.90;;;;;;5074277;28;20185;-79
2023/02/03 09:34:41;;;;;;;7.30;1.40;;;11.40;99.90;;;;;;5074682;28;20167;-78
2023/02/03 09:37:07;;;;;;;1.30;0.98;;;11.40;99.90;;;;;;5074227;28;20619;-79
2023/02/03 09:39:33;;;;;;;2.60;1.33;;;11.40;99.90;;;;;;5072949;28;20162;-78
2023/02/03 09:42:24;;;;;;;3.97;1.35;;;11.50;99.90;;;;;;5074458;28;20214;-79
2023/02/03 09:45:09;;;;;;;2.90;1.30;;;11.40;99.90;;;;;;5073990;28;20631;-79
2023/02/03 09:47:42;;;;;;;4.80;1.23;;;11.40;99.90;;;;;;5073054;28;20170;-79
2023/02/03 09:50:18;;;;;;;5.82;1.70;;;11.60;99.90;;;;;;5073919;28;20210;-80
2023/02/03 09:52:46;;;;;;;9.85;1.60;;;11.50;99.90;;;;;;5074077;28;20630;-78
2023/02/03 09:55:39;;;;;;;5.65;1.20;;;11.60;99.90;;;;;;5074151;28;20250;-79
2023/02/03 09:58:17;;;;;;;4.55;1.17;;;11.50;99.90;;;;;;5074055;28;20170;-79
2023/02/03 10:00:57;;;;;;;6.95;1.00;;;11.50;99.90;;;;;;5072517;28;20194;-79
2023/02/03 10:03:32;;;;;;;8.43;1.60;;;11.70;99.90;;;;;;5072640;28;20291;-78
2023/02/03 10:06:12;;;;;;;6.55;1.38;;;11.70;99.90;;;;;;5073956;28;20164;-79
2023/02/03 10:08:55;;;;;;;3.90;1.30;;;11.70;99.90;;;;;;5073976;28;20626;-79
2023/02/03 10:11:58;;;;;;;4.97;1.45;;;11.80;99.90;;;;;;5073816;28;20196;-78
2023/02/03 10:14:39;;;;;;;5.55;1.30;;;11.90;99.90;;;;;;5072659;28;20524;-79
2023/02/03 10:17:25;;;;;;;3.00;1.75;;;11.90;99.90;;;;;;5073631;28;20176;-78
2023/02/03 10:20:12;;;;;;;8.35;1.40;;;12.00;99.90;;;;;;5073858;28;20166;-79
2023/02/03 10:22:49;;;;;;;19.67;2.45;;;12.10;99.90;;;;;;5073501;28;20163;-79
2023/02/03 10:25:23;;;;;;;6.82;1.45;;;12.10;99.90;;;;;;5073252;28;20265;-79
2023/02/03 10:27:57;;;;;;;4.20;1.80;;;12.20;99.90;;;;;;5073212;28;20185;-78
2023/02/03 10:30:24;;;;;;;17.30;1.83;;;12.30;99.90;;;;;;5073434;28;20685;-78
2023/02/03 10:32:54;;;;;;;4.32;1.48;;;12.40;99.90;;;;;;5072891;28;20167;-79
2023/02/03 10:35:25;;;;;;;6.43;2.00;;;12.20;99.90;;;;;;5073172;28;20170;-84
2023/02/03 10:37:57;;;;;;;1.80;1.30;;;12.20;99.90;;;;;;5073620;28;20182;-78
2023/02/03 10:40:24;;;;;;;6.93;2.05;;;12.20;99.90;;;;;;5073021;28;20190;-79
2023/02/03 10:45:38;;;;;;;6.03;1.70;;;12.10;99.90;;;;;;5073115;28;20258;-79
2023/02/03 10:48:10;;;;;;;7.65;1.98;;;12.00;99.90;;;;;;5071891;28;20507;-79
2023/02/03 10:50:41;;;;;;;8.02;2.00;;;12.10;99.90;;;;;;5072731;28;20320;-80
2023/02/03 10:53:30;;;;;;;5.22;1.90;;;12.20;99.90;;;;;;5071742;28;20181;-79
2023/02/03 10:56:08;;;;;;;12.43;2.17;;;12.20;99.90;;;;;;5073280;28;20281;-79
2023/02/03 10:58:35;;;;;;;2.58;1.80;;;12.10;99.90;;;;;;5073129;28;20173;-78
2023/02/03 11:01:14;;;;;;;7.65;2.22;;;12.10;99.90;;;;;;5072685;28;20190;-79
2023/02/03 11:03:52;;;;;;;7.22;1.95;;;12.10;99.90;;;;;;5073513;28;20580;-79
2023/02/03 11:06:18;;;;;;;9.00;2.20;;;12.00;99.90;;;;;;5073748;28;20205;-81
2023/02/03 11:08:46;;;;;;;2.53;1.80;;;12.10;99.90;;;;;;5072725;28;20202;-81
2023/02/03 11:11:19;;;;;;;3.38;2.15;;;12.00;99.90;;;;;;5073771;28;20194;-79
2023/02/03 11:13:45;;;;;;;6.45;2.58;;;11.80;99.90;;;;;;5073220;28;20228;-79
2023/02/03 11:16:20;;;;;;;5.57;2.67;;;12.00;99.90;;;;;;5074184;28;20969;-80
2023/02/03 11:18:56;;;;;;;2.28;2.03;;;11.90;99.90;;;;;;5073971;28;20629;-79
2023/02/03 11:21:52;;;;;;;7.00;4.03;;;11.90;99.90;;;;;;5071470;28;20189;-84
2023/02/03 11:24:18;;;;;;;4.15;2.13;;;11.80;99.90;;;;;;5064345;28;20188;-80
2023/02/03 11:26:53;;;;;;;7.35;2.25;;;11.70;99.90;;;;;;5071449;28;20632;-79
2023/02/03 11:29:43;;;;;;;6.53;2.38;;;11.70;99.90;;;;;;5072064;28;20236;-78
2023/02/03 11:32:32;;;;;;;6.47;2.08;;;11.60;99.90;;;;;;5080054;28;20245;-79
2023/02/03 11:35:00;;;;;;;8.63;3.88;;;11.70;99.90;;;;;;5090348;28;20210;-82
2023/02/03 11:37:36;;;;;;;6.82;2.85;;;11.70;99.90;;;;;;5081084;28;20170;-84
2023/02/03 11:40:09;;;;;;;14.95;5.78;;;11.60;99.90;;;;;;5075256;28;20163;-78
2023/02/03 11:42:38;;;;;;;18.45;6.05;;;11.60;99.90;;;;;;5072634;28;20178;-79
2023/02/03 11:45:21;;;;;;;14.77;3.53;;;11.50;99.90;;;;;;5076626;28;20166;-81
2023/02/03 11:47:53;;;;;;;7.15;3.30;;;11.60;99.90;;;;;;5075172;28;20623;-81
2023/02/03 11:50:24;;;;;;;5.53;2.63;;;11.80;99.90;;;;;;5073297;28;20563;-79
2023/02/03 11:53:14;;;;;;;15.90;3.05;;;11.90;99.90;;;;;;5073952;28;20162;-79
2023/02/03 11:55:54;;;;;;;3.17;2.85;;;11.70;99.90;;;;;;5072351;28;20630;-80
2023/02/03 11:58:38;;;;;;;10.10;3.00;;;11.70;99.90;;;;;;5074953;28;20162;-80
2023/02/03 12:01:11;;;;;;;4.50;2.95;;;11.70;99.90;;;;;;5077972;28;20182;-79
2023/02/03 12:03:37;;;;;;;4.50;2.90;;;11.60;99.90;;;;;;5071054;28;20175;-80
2023/02/03 12:06:21;;;;;;;11.07;5.28;;;11.70;99.90;;;;;;5071168;28;20236;-81
2023/02/03 12:09:00;;;;;;;12.27;7.07;;;11.80;99.90;;;;;;5072538;28;20175;-84
2023/02/03 12:11:37;;;;;;;19.70;8.35;;;11.70;99.90;;;;;;5073122;28;20665;-83
2023/02/03 12:14:36;;;;;;;7.45;3.75;;;11.80;99.90;;;;;;5072477;28;20166;-82
2023/02/03 12:17:36;;;;;;;7.78;6.55;;;12.00;99.90;;;;;;5070982;28;20546;-82
2023/02/03 12:20:16;;;;;;;11.30;4.57;;;12.00;99.90;;;;;;5030075;28;20180;-84
2023/02/03 12:22:59;;;;;;;9.00;5.45;;;12.00;99.90;;;;;;5067457;28;20178;-79
2023/02/03 12:25:36;;;;;;;6.45;3.35;;;12.00;99.90;;;;;;5072062;28;20216;-79
2023/02/03 12:28:27;;;;;;;6.80;3.03;;;11.90;99.90;;;;;;5071830;28;20190;-79
2023/02/03 12:31:06;;;;;;;5.25;2.78;;;11.90;99.90;;;;;;5071713;28;20309;-79
2023/02/03 12:33:43;;;;;;;6.30;2.15;;;11.70;99.90;;;;;;5070093;28;20618;-79
2023/02/03 12:36:14;;;;;;;5.47;3.28;;;11.80;99.90;;;;;;5071607;28;20174;-84
2023/02/03 12:38:53;;;;;;;3.38;2.45;;;11.80;99.90;;;;;;5072199;28;20167;-79
2023/02/03 12:41:33;;;;;;;7.25;3.05;;;11.90;99.90;;;;;;5075351;28;20282;-81
2023/02/03 12:44:15;;;;;;;8.73;3.70;;;11.90;99.90;;;;;;5075814;28;20166;-79
2023/02/03 12:46:48;;;;;;;17.17;4.22;;;11.90;99.90;;;;;;5075339;28;20162;-78
2023/02/03 12:49:40;;;;;;;13.18;5.40;;;11.90;99.90;;;;;;5075109;28;20302;-79
2023/02/03 12:52:20;;;;;;;2.85;2.65;;;11.90;99.90;;;;;;5073977;28;20550;-78
2023/02/03 12:55:06;;;;;;;8.20;2.40;;;11.90;99.90;;;;;;5075423;28;20247;-82
2023/02/03 12:57:45;;;;;;;5.22;2.10;;;12.00;99.90;;;;;;5073875;28;20167;-80
2023/02/03 13:00:10;;;;;;;4.85;2.15;;;12.00;99.90;;;;;;5073779;28;20182;-80
2023/02/03 13:03:14;;;;;;;7.72;2.35;;;12.10;99.90;;;;;;5075358;28;20189;-84
2023/02/03 13:06:05;;;;;;;5.00;2.08;;;12.10;99.90;;;;;;5075168;28;20201;-84
2023/02/03 13:08:33;;;;;;;4.75;2.78;;;12.30;99.90;;;;;;5075505;28;20201;-80